Terminal Aerodrome Forecast
Issued by NWS

Home | Current Version | Previous Version | Text Only | Print | Product List | Glossary On
Versions: 1 2 3 4 5 6 7 8 9 10 11 12
000
FTUS42 KTAE 231732
TAFDHN
TAF
KDHN 231732Z 2318/2418 28005KT P6SM SCT050
     FM240100 22004KT P6SM FEW200
     FM241400 23007KT P6SM SCT040=

USA.gov is the U.S. government's official web portal to all federal, state and local government web resources and services.